createdAt,value
2022-09-03T00:02:08.686Z,2.00
2022-09-03T00:04:26.055Z,2.00
2022-09-03T00:06:43.331Z,1.90
2022-09-03T00:09:00.423Z,2.13
2022-09-03T00:11:17.688Z,1.90
2022-09-03T00:13:35.071Z,1.90
2022-09-03T00:15:53.510Z,2.13
2022-09-03T00:18:10.948Z,2.00
2022-09-03T00:20:28.258Z,1.80
2022-09-03T00:22:45.630Z,1.77
2022-09-03T00:25:02.732Z,1.90
2022-09-03T00:27:19.999Z,2.08
2022-09-03T00:29:37.107Z,1.90
2022-09-03T00:31:54.067Z,1.80
2022-09-03T00:34:11.393Z,1.92
2022-09-03T00:36:28.462Z,1.85
2022-09-03T00:38:45.397Z,1.65
2022-09-03T00:41:02.383Z,1.90
2022-09-03T00:43:20.606Z,2.00
2022-09-03T00:45:37.930Z,2.17
2022-09-03T00:47:56.165Z,2.00
2022-09-03T00:50:14.193Z,1.73
2022-09-03T00:52:33.664Z,2.20
2022-09-03T00:54:51.194Z,1.90
2022-09-03T00:57:08.185Z,2.03
2022-09-03T00:59:25.552Z,1.77
2022-09-03T01:01:42.693Z,1.80
2022-09-03T01:04:00.761Z,1.98
2022-09-03T01:06:17.692Z,2.00
2022-09-03T01:08:36.933Z,1.90
2022-09-03T01:10:54.212Z,1.95
2022-09-03T01:13:11.105Z,1.95
2022-09-03T01:15:28.094Z,2.13
2022-09-03T01:17:45.974Z,1.98
2022-09-03T01:20:02.939Z,2.03
2022-09-03T01:22:20.240Z,2.20
2022-09-03T01:24:37.262Z,1.92
2022-09-03T01:26:54.240Z,1.80
2022-09-03T01:29:11.262Z,1.95
2022-09-03T01:31:28.355Z,1.92
2022-09-03T01:33:45.462Z,2.00
2022-09-03T01:36:02.467Z,2.03
2022-09-03T01:38:20.770Z,2.20
2022-09-03T01:40:37.793Z,1.90
2022-09-03T01:42:55.049Z,1.95
2022-09-03T01:45:12.106Z,2.35
2022-09-03T01:47:30.428Z,2.10
2022-09-03T01:49:48.757Z,1.75
2022-09-03T01:52:06.032Z,2.00
2022-09-03T01:54:23.326Z,2.10
2022-09-03T01:56:40.374Z,2.30
2022-09-03T01:58:57.644Z,2.28
2022-09-03T02:01:14.699Z,1.95
2022-09-03T02:03:35.456Z,2.00
2022-09-03T02:05:57.896Z,2.13
2022-09-03T02:08:14.996Z,2.17
2022-09-03T02:10:31.896Z,2.00
2022-09-03T02:12:48.936Z,2.00
2022-09-03T02:15:06.861Z,2.28
2022-09-03T02:17:24.175Z,2.30
2022-09-03T02:19:41.136Z,2.17
2022-09-03T02:21:58.403Z,2.30
2022-09-03T02:24:15.442Z,2.10
2022-09-03T02:26:32.770Z,2.00
2022-09-03T02:28:49.802Z,2.20
2022-09-03T02:31:07.197Z,2.17
2022-09-03T02:33:24.297Z,2.05
2022-09-03T02:35:41.257Z,2.00
2022-09-03T02:37:58.562Z,2.35
2022-09-03T02:40:15.632Z,2.08
2022-09-03T02:42:32.931Z,1.85
2022-09-03T02:44:50.869Z,2.10
2022-09-03T02:47:08.300Z,2.25
2022-09-03T02:49:25.228Z,2.17
2022-09-03T02:51:42.539Z,2.08
2022-09-03T02:53:59.929Z,2.00
2022-09-03T02:56:17.288Z,1.80
2022-09-03T02:58:34.593Z,1.83
2022-09-03T03:00:51.715Z,2.30
2022-09-03T03:03:08.793Z,2.10
2022-09-03T03:05:25.905Z,2.20
2022-09-03T03:07:42.847Z,2.15
2022-09-03T03:10:00.153Z,1.77
2022-09-03T03:12:17.383Z,2.67
2022-09-03T03:14:34.294Z,2.00
2022-09-03T03:16:51.465Z,2.03
2022-09-03T03:19:08.535Z,2.00
2022-09-03T03:21:25.766Z,2.30
2022-09-03T03:23:43.076Z,1.85
2022-09-03T03:26:00.086Z,1.95
2022-09-03T03:28:17.901Z,2.10
2022-09-03T03:30:35.396Z,1.92
2022-09-03T03:32:52.658Z,2.00
2022-09-03T03:35:09.910Z,1.90
2022-09-03T03:37:27.219Z,2.00
2022-09-03T03:39:44.546Z,2.45
2022-09-03T03:42:01.910Z,1.88
2022-09-03T03:44:18.849Z,2.10
2022-09-03T03:46:36.095Z,2.10
2022-09-03T03:48:53.217Z,1.92
2022-09-03T03:51:10.236Z,2.00
2022-09-03T03:53:27.582Z,2.25
2022-09-03T03:55:44.498Z,2.10
2022-09-03T03:58:01.796Z,2.25
2022-09-03T04:00:18.756Z,1.95
2022-09-03T04:02:39.035Z,2.03
2022-09-03T04:04:56.556Z,1.95
2022-09-03T04:07:13.827Z,1.80
2022-09-03T04:09:30.857Z,2.00
2022-09-03T04:11:47.914Z,2.00
2022-09-03T04:14:04.930Z,2.10
2022-09-03T04:16:22.053Z,2.15
2022-09-03T04:18:39.032Z,1.80
2022-09-03T04:20:56.361Z,2.03
2022-09-03T04:23:14.709Z,2.28
2022-09-03T04:25:31.700Z,2.25
2022-09-03T04:27:48.960Z,2.13
2022-09-03T04:30:06.006Z,2.17
2022-09-03T04:32:23.322Z,2.20
2022-09-03T04:34:40.627Z,2.10
2022-09-03T04:36:57.562Z,2.03
2022-09-03T04:39:14.818Z,2.10
2022-09-03T04:41:31.788Z,2.00
2022-09-03T04:43:51.563Z,2.25
2022-09-03T04:46:16.101Z,2.15
2022-09-03T04:48:35.205Z,2.00
2022-09-03T04:50:54.735Z,2.22
2022-09-03T04:53:11.748Z,2.28
2022-09-03T04:55:29.066Z,2.28
2022-09-03T04:57:46.392Z,2.50
2022-09-03T05:00:03.639Z,2.22
2022-09-03T05:02:20.619Z,2.05
2022-09-03T05:04:37.548Z,2.30
2022-09-03T05:06:54.815Z,1.90
2022-09-03T05:09:11.867Z,2.10
2022-09-03T05:11:28.776Z,2.20
2022-09-03T05:13:45.731Z,2.30
2022-09-03T05:16:03.084Z,2.33
2022-09-03T05:18:20.143Z,2.40
2022-09-03T05:20:37.369Z,2.20
2022-09-03T05:22:54.440Z,2.30
2022-09-03T05:25:11.673Z,2.33
2022-09-03T05:27:28.657Z,2.10
2022-09-03T05:29:45.978Z,2.30
2022-09-03T05:32:03.356Z,2.35
2022-09-03T05:34:20.393Z,2.05
2022-09-03T05:36:37.293Z,2.20
2022-09-03T05:38:54.594Z,2.50
2022-09-03T05:41:11.665Z,2.13
2022-09-03T05:43:28.717Z,2.20
2022-09-03T05:45:45.806Z,2.50
2022-09-03T05:48:02.922Z,2.40
2022-09-03T05:50:19.961Z,2.42
2022-09-03T05:52:36.913Z,2.78
2022-09-03T05:54:53.926Z,2.45
2022-09-03T05:57:12.270Z,2.47
2022-09-03T05:59:29.322Z,2.47
2022-09-03T06:01:50.967Z,2.33
2022-09-03T06:04:09.312Z,2.33
2022-09-03T06:06:26.609Z,2.30
2022-09-03T06:08:43.561Z,2.30
2022-09-03T06:11:00.528Z,2.10
2022-09-03T06:13:17.806Z,2.35
2022-09-03T06:15:35.192Z,2.30
2022-09-03T06:17:52.169Z,2.30
2022-09-03T06:20:09.257Z,2.58
2022-09-03T06:22:26.292Z,2.38
2022-09-03T06:24:44.491Z,2.60
2022-09-03T06:27:07.018Z,2.20
2022-09-03T06:29:25.274Z,2.50
2022-09-03T06:31:42.567Z,2.42
2022-09-03T06:34:03.860Z,2.60
2022-09-03T06:36:21.152Z,2.38
2022-09-03T06:38:38.409Z,2.38
2022-09-03T06:40:55.339Z,2.40
2022-09-03T06:43:12.596Z,2.53
2022-09-03T06:45:29.964Z,2.10
2022-09-03T06:47:46.946Z,2.20
2022-09-03T06:50:04.308Z,2.33
2022-09-03T06:52:21.583Z,2.45
2022-09-03T06:54:38.922Z,2.50
2022-09-03T06:56:56.201Z,2.30
2022-09-03T06:59:13.594Z,2.30
2022-09-03T07:01:31.608Z,2.45
2022-09-03T07:03:48.978Z,2.40
2022-09-03T07:06:07.019Z,2.42
2022-09-03T07:08:24.155Z,2.10
2022-09-03T07:10:41.193Z,2.22
2022-09-03T07:12:58.446Z,2.42
2022-09-03T07:15:15.535Z,2.28
2022-09-03T07:17:32.498Z,2.10
2022-09-03T07:19:49.378Z,2.15
2022-09-03T07:22:06.700Z,2.10
2022-09-03T07:24:23.619Z,2.10
2022-09-03T07:26:40.650Z,2.33
2022-09-03T07:28:57.598Z,1.90
2022-09-03T07:31:14.592Z,2.22
2022-09-03T07:33:33.750Z,2.10
2022-09-03T07:35:50.956Z,1.95
2022-09-03T07:38:08.027Z,2.10
2022-09-03T07:40:25.392Z,2.40
2022-09-03T07:42:42.775Z,2.10
2022-09-03T07:45:00.013Z,1.90
2022-09-03T07:47:16.962Z,2.17
2022-09-03T07:49:44.492Z,2.10
2022-09-03T07:52:05.735Z,2.40
2022-09-03T07:54:28.931Z,1.85
2022-09-03T07:56:46.396Z,1.83
2022-09-03T07:59:03.353Z,2.00
2022-09-03T08:01:20.326Z,1.98
2022-09-03T08:03:37.675Z,1.90
2022-09-03T08:05:54.658Z,1.88
2022-09-03T08:08:11.749Z,1.92
2022-09-03T08:10:32.537Z,1.80
2022-09-03T08:12:49.874Z,2.03
2022-09-03T08:15:06.809Z,1.83
2022-09-03T08:17:23.976Z,2.00
2022-09-03T08:19:41.291Z,2.10
2022-09-03T08:21:58.296Z,1.90
2022-09-03T08:24:16.801Z,2.17
2022-09-03T08:26:34.081Z,2.10
2022-09-03T08:28:51.222Z,2.33
2022-09-03T08:31:08.359Z,2.20
2022-09-03T08:33:25.386Z,2.20
2022-09-03T08:35:42.997Z,2.33
2022-09-03T08:38:00.278Z,2.15
2022-09-03T08:40:17.347Z,2.00
2022-09-03T08:42:34.650Z,2.00
2022-09-03T08:44:51.670Z,2.10
2022-09-03T08:47:08.729Z,2.15
2022-09-03T08:49:25.996Z,2.00
2022-09-03T08:51:43.119Z,1.92
2022-09-03T08:54:00.074Z,2.10
2022-09-03T08:56:17.115Z,2.40
2022-09-03T08:58:34.475Z,1.98
2022-09-03T09:00:51.427Z,2.28
2022-09-03T09:03:08.414Z,2.00
2022-09-03T09:05:25.345Z,1.85
2022-09-03T09:07:44.088Z,2.00
2022-09-03T09:10:01.070Z,2.22
2022-09-03T09:12:18.108Z,2.03
2022-09-03T09:14:36.544Z,2.00
2022-09-03T09:16:56.730Z,2.10
2022-09-03T09:19:13.766Z,2.20
2022-09-03T09:21:31.089Z,2.15
2022-09-03T09:23:47.990Z,2.30
2022-09-03T09:26:05.048Z,2.00
2022-09-03T09:28:23.770Z,2.28
2022-09-03T09:30:41.152Z,2.20
2022-09-03T09:32:58.267Z,2.40
2022-09-03T09:35:15.279Z,2.30
2022-09-03T09:37:32.211Z,2.33
2022-09-03T09:39:49.345Z,2.47
2022-09-03T09:42:08.314Z,2.80
2022-09-03T09:44:25.410Z,2.35
2022-09-03T09:46:42.397Z,2.22
2022-09-03T09:48:59.397Z,2.30
2022-09-03T09:51:16.378Z,2.78
2022-09-03T09:53:33.344Z,2.17
2022-09-03T09:55:50.675Z,2.55
2022-09-03T09:58:13.466Z,2.40
2022-09-03T10:00:31.421Z,2.25
2022-09-03T10:02:48.410Z,2.42
2022-09-03T10:05:05.748Z,2.75
2022-09-03T10:07:22.793Z,2.50
2022-09-03T10:09:40.130Z,2.42
2022-09-03T10:11:57.069Z,2.22
2022-09-03T10:14:14.178Z,2.15
2022-09-03T10:16:32.110Z,2.60
2022-09-03T10:18:49.106Z,2.30
2022-09-03T10:21:06.508Z,2.28
2022-09-03T10:23:23.536Z,2.50
2022-09-03T10:25:41.330Z,2.20
2022-09-03T10:27:59.819Z,2.40
2022-09-03T10:30:17.079Z,2.50
2022-09-03T10:32:39.819Z,2.22
2022-09-03T10:34:58.414Z,2.40
2022-09-03T10:37:15.382Z,2.10
2022-09-03T10:39:32.400Z,2.33
2022-09-03T10:41:59.864Z,2.20
2022-09-03T10:44:17.042Z,2.40
2022-09-03T10:46:35.346Z,2.28
2022-09-03T10:48:52.409Z,2.40
2022-09-03T10:51:09.502Z,2.40
2022-09-03T10:53:26.564Z,2.90
2022-09-03T10:55:43.651Z,2.33
2022-09-03T10:58:00.730Z,2.40
2022-09-03T11:00:17.829Z,2.40
2022-09-03T11:02:35.910Z,2.50
2022-09-03T11:04:53.898Z,2.22
2022-09-03T11:07:10.878Z,2.30
2022-09-03T11:09:29.244Z,2.30
2022-09-03T11:11:46.335Z,2.53
2022-09-03T11:14:03.261Z,2.30
2022-09-03T11:16:20.307Z,2.30
2022-09-03T11:18:37.771Z,2.58
2022-09-03T11:20:54.828Z,2.47
2022-09-03T11:23:12.084Z,2.40
2022-09-03T11:25:29.823Z,2.53
2022-09-03T11:27:46.918Z,2.30
2022-09-03T11:30:03.923Z,2.53
2022-09-03T11:32:20.916Z,2.58
2022-09-03T11:34:38.083Z,2.75
2022-09-03T11:36:55.444Z,2.80
2022-09-03T11:39:12.397Z,2.53
2022-09-03T11:41:29.386Z,2.47
2022-09-03T11:43:46.532Z,2.47
2022-09-03T11:46:03.965Z,2.85
2022-09-03T11:48:21.256Z,2.55
2022-09-03T11:50:38.388Z,2.75
2022-09-03T11:52:55.869Z,2.65
2022-09-03T11:55:14.361Z,2.80
2022-09-03T11:57:31.710Z,2.90
2022-09-03T11:59:48.792Z,2.80
2022-09-03T12:02:06.185Z,2.70
2022-09-03T12:04:23.580Z,2.92
2022-09-03T12:06:40.900Z,2.78
2022-09-03T12:08:58.193Z,2.80
2022-09-03T12:11:15.513Z,2.92
2022-09-03T12:13:32.635Z,2.80
2022-09-03T12:15:49.913Z,2.90
2022-09-03T12:18:07.010Z,2.80
2022-09-03T12:20:24.095Z,2.88
2022-09-03T12:22:41.040Z,3.10
2022-09-03T12:24:58.788Z,2.95
2022-09-03T12:27:15.748Z,2.75
2022-09-03T12:29:32.715Z,2.90
2022-09-03T12:31:50.765Z,2.70
2022-09-03T12:34:08.743Z,2.70
2022-09-03T12:36:25.711Z,3.28
2022-09-03T12:39:09.835Z,3.05
2022-09-03T12:41:23.464Z,2.75
2022-09-03T12:43:49.861Z,2.63
2022-09-03T12:46:10.983Z,2.90
2022-09-03T12:48:32.854Z,2.72
2022-09-03T12:50:56.766Z,2.83
2022-09-03T12:53:13.909Z,2.88
2022-09-03T12:55:31.275Z,2.97
2022-09-03T12:57:48.432Z,2.80
2022-09-03T13:00:06.035Z,2.70
2022-09-03T13:02:23.107Z,3.10
2022-09-03T13:04:42.796Z,2.72
2022-09-03T13:06:59.827Z,2.65
2022-09-03T13:09:16.969Z,2.95
2022-09-03T13:11:34.279Z,2.72
2022-09-03T13:13:51.570Z,3.42
2022-09-03T13:16:08.726Z,3.08
2022-09-03T13:18:25.796Z,2.90
2022-09-03T13:20:42.857Z,3.20
2022-09-03T13:22:59.939Z,2.70
2022-09-03T13:25:17.210Z,2.83
2022-09-03T13:27:34.307Z,2.97
2022-09-03T13:29:52.579Z,3.22
2022-09-03T13:32:09.678Z,3.10
2022-09-03T13:34:26.683Z,2.80
2022-09-03T13:36:47.189Z,3.40
2022-09-03T13:39:04.347Z,3.38
2022-09-03T13:41:21.483Z,3.30
2022-09-03T13:43:38.431Z,2.80
2022-09-03T13:45:55.835Z,3.05
2022-09-03T13:48:13.376Z,2.95
2022-09-03T13:50:30.436Z,3.00
2022-09-03T13:52:47.588Z,2.80
2022-09-03T13:55:04.730Z,3.17
2022-09-03T13:57:21.717Z,2.90
2022-09-03T13:59:40.066Z,3.38
2022-09-03T14:01:59.559Z,2.97
2022-09-03T14:04:16.639Z,3.47
2022-09-03T14:06:33.923Z,3.92
2022-09-03T14:08:54.253Z,3.30
2022-09-03T14:11:14.101Z,3.47
2022-09-03T14:13:31.078Z,3.40
2022-09-03T14:15:48.134Z,3.75
2022-09-03T14:18:05.192Z,3.70
2022-09-03T14:20:22.473Z,4.00
2022-09-03T14:22:39.505Z,4.20
2022-09-03T14:24:56.470Z,4.30
2022-09-03T14:27:14.183Z,4.50
2022-09-03T14:29:31.050Z,4.20
2022-09-03T14:31:49.418Z,3.38
2022-09-03T14:34:06.806Z,3.17
2022-09-03T14:36:23.923Z,2.72
2022-09-03T14:38:41.290Z,3.15
2022-09-03T14:40:58.323Z,3.42
2022-09-03T14:43:15.397Z,3.15
2022-09-03T14:45:32.376Z,2.60
2022-09-03T14:47:49.341Z,2.70
2022-09-03T14:50:06.636Z,2.70
2022-09-03T14:52:24.174Z,2.58
2022-09-03T14:54:41.499Z,2.80
2022-09-03T14:56:59.445Z,2.67
2022-09-03T14:59:16.977Z,2.50
2022-09-03T15:01:38.870Z,2.58
2022-09-03T15:03:57.101Z,2.42
2022-09-03T15:06:14.166Z,2.33
2022-09-03T15:08:31.267Z,2.42
2022-09-03T15:10:49.538Z,2.00
2022-09-03T15:13:08.207Z,2.35
2022-09-03T15:15:25.524Z,2.42
2022-09-03T15:17:43.132Z,2.88
2022-09-03T15:20:00.596Z,2.70
2022-09-03T15:22:17.591Z,2.22
2022-09-03T15:24:36.442Z,2.20
2022-09-03T15:26:53.723Z,2.08
2022-09-03T15:29:10.983Z,2.22
2022-09-03T15:31:28.775Z,2.25
2022-09-03T15:33:46.132Z,2.25
2022-09-03T15:36:03.099Z,2.50
2022-09-03T15:38:20.428Z,2.20
2022-09-03T15:40:38.448Z,2.50
2022-09-03T15:42:57.954Z,2.20
2022-09-03T15:45:15.990Z,2.40
2022-09-03T15:47:46.526Z,2.20
2022-09-03T15:50:08.311Z,1.80
2022-09-03T15:52:26.650Z,1.80
2022-09-03T15:54:43.732Z,2.05
2022-09-03T15:57:00.792Z,1.98
2022-09-03T15:59:17.862Z,2.00
2022-09-03T16:01:35.504Z,2.00
2022-09-03T16:03:52.822Z,2.10
2022-09-03T16:06:11.919Z,2.10
2022-09-03T16:08:30.002Z,2.20
2022-09-03T16:10:47.067Z,2.50
2022-09-03T16:13:04.046Z,2.50
2022-09-03T16:15:21.037Z,2.45
2022-09-03T16:17:38.302Z,2.72
2022-09-03T16:19:55.853Z,2.50
2022-09-03T16:22:13.110Z,2.75
2022-09-03T16:24:30.071Z,2.53
2022-09-03T16:26:47.263Z,2.92
2022-09-03T16:29:04.206Z,2.17
2022-09-03T16:31:21.285Z,2.65
2022-09-03T16:33:38.477Z,2.50
2022-09-03T16:35:55.864Z,2.50
2022-09-03T16:38:14.206Z,2.92
2022-09-03T16:40:31.608Z,2.63
2022-09-03T16:42:48.639Z,2.65
2022-09-03T16:45:05.690Z,2.20
2022-09-03T16:47:23.019Z,2.22
2022-09-03T16:49:40.076Z,2.17
2022-09-03T16:51:57.135Z,2.40
2022-09-03T16:54:14.698Z,2.47
2022-09-03T16:56:33.024Z,2.22
2022-09-03T16:58:50.007Z,2.10
2022-09-03T17:01:07.558Z,2.40
2022-09-03T17:03:26.593Z,2.22
2022-09-03T17:05:43.926Z,2.33
2022-09-03T17:08:02.749Z,2.85
2022-09-03T17:10:20.166Z,2.10
2022-09-03T17:12:37.245Z,2.50
2022-09-03T17:14:54.624Z,2.50
2022-09-03T17:17:11.702Z,2.22
2022-09-03T17:19:28.674Z,2.60
2022-09-03T17:21:46.810Z,2.50
2022-09-03T17:24:03.918Z,2.30
2022-09-03T17:26:21.249Z,2.20
2022-09-03T17:28:38.340Z,2.40
2022-09-03T17:30:55.903Z,2.72
2022-09-03T17:33:13.910Z,2.42
2022-09-03T17:35:33.851Z,2.45
2022-09-03T17:37:54.695Z,2.60
2022-09-03T17:40:12.058Z,2.50
2022-09-03T17:42:29.157Z,2.70
2022-09-03T17:44:46.303Z,3.03
2022-09-03T17:47:03.790Z,3.60
2022-09-03T17:49:22.240Z,3.20
2022-09-03T17:51:39.327Z,3.22
2022-09-03T17:53:56.340Z,3.30
2022-09-03T17:56:13.496Z,2.70
2022-09-03T17:58:31.339Z,2.55
2022-09-03T18:00:48.683Z,2.80
2022-09-03T18:03:06.074Z,2.60
2022-09-03T18:05:23.187Z,2.72
2022-09-03T18:07:40.274Z,2.70
2022-09-03T18:09:57.257Z,2.60
2022-09-03T18:12:14.152Z,2.45
2022-09-03T18:14:31.428Z,2.20
2022-09-03T18:16:48.527Z,2.33
2022-09-03T18:19:05.500Z,2.55
2022-09-03T18:21:26.557Z,2.67
2022-09-03T18:23:46.205Z,2.67
2022-09-03T18:26:03.187Z,2.70
2022-09-03T18:28:20.587Z,2.72
2022-09-03T18:30:40.196Z,2.78
2022-09-03T18:32:57.561Z,3.08
2022-09-03T18:35:14.567Z,2.67
2022-09-03T18:37:31.607Z,2.45
2022-09-03T18:39:48.675Z,2.60
2022-09-03T18:42:05.674Z,2.58
2022-09-03T18:44:23.649Z,2.45
2022-09-03T18:49:17.627Z,2.80
2022-09-03T18:51:35.053Z,2.70
2022-09-03T18:53:54.597Z,2.85
2022-09-03T18:56:12.519Z,2.70
2022-09-03T18:58:30.462Z,2.80
2022-09-03T19:00:47.674Z,2.85
2022-09-03T19:03:05.110Z,2.85
2022-09-03T19:05:22.309Z,3.10
2022-09-03T19:07:39.805Z,3.00
2022-09-03T19:09:56.854Z,3.28
2022-09-03T19:12:14.205Z,2.78
2022-09-03T19:14:32.435Z,2.95
2022-09-03T19:16:49.496Z,2.80
2022-09-03T19:19:08.789Z,3.40
2022-09-03T19:21:28.111Z,2.90
2022-09-03T19:23:45.148Z,2.60
2022-09-03T19:26:03.148Z,2.65
2022-09-03T19:28:21.699Z,3.17
2022-09-03T19:30:39.944Z,3.28
2022-09-03T19:32:59.740Z,3.10
2022-09-03T19:35:16.809Z,3.25
2022-09-03T19:37:34.134Z,4.05
2022-09-03T19:39:51.266Z,4.57
2022-09-03T19:42:09.653Z,4.00
2022-09-03T19:44:26.623Z,4.07
2022-09-03T19:46:43.954Z,4.55
2022-09-03T19:49:01.053Z,4.35
2022-09-03T19:51:18.305Z,5.00
2022-09-03T19:53:36.598Z,5.45
2022-09-03T19:55:53.538Z,5.18
2022-09-03T19:58:32.215Z,4.78
2022-09-03T20:00:47.449Z,4.43
2022-09-03T20:03:04.446Z,4.55
2022-09-03T20:05:21.610Z,5.10
2022-09-03T20:07:38.571Z,4.88
2022-09-03T20:09:55.620Z,4.47
2022-09-03T20:12:12.679Z,3.95
2022-09-03T20:14:30.939Z,4.78
2022-09-03T20:16:47.999Z,4.50
2022-09-03T20:19:04.943Z,4.35
2022-09-03T20:21:22.313Z,4.97
2022-09-03T20:23:39.570Z,5.40
2022-09-03T20:25:56.853Z,4.13
2022-09-03T20:28:13.836Z,4.80
2022-09-03T20:30:30.769Z,5.40
2022-09-03T20:32:48.615Z,5.18
2022-09-03T20:35:10.343Z,5.10
2022-09-03T20:37:28.265Z,4.93
2022-09-03T20:39:45.567Z,5.20
2022-09-03T20:42:02.934Z,6.25
2022-09-03T20:44:20.196Z,6.57
2022-09-03T20:46:37.579Z,6.00
2022-09-03T20:48:54.553Z,6.63
2022-09-03T20:51:12.236Z,6.57
2022-09-03T20:53:29.797Z,5.93
2022-09-03T20:55:46.745Z,6.03
2022-09-03T20:58:03.661Z,6.35
2022-09-03T21:00:20.731Z,6.65
2022-09-03T21:02:37.865Z,7.07
2022-09-03T21:04:54.997Z,7.38
2022-09-03T21:07:12.074Z,7.68
2022-09-03T21:09:29.409Z,6.85
2022-09-03T21:11:46.361Z,6.50
2022-09-03T21:14:03.687Z,5.38
2022-09-03T21:16:20.997Z,5.68
2022-09-03T21:18:37.967Z,5.85
2022-09-03T21:20:55.296Z,6.00
2022-09-03T21:23:13.367Z,4.75
2022-09-03T21:25:30.463Z,5.00
2022-09-03T21:27:47.728Z,4.80
2022-09-03T21:30:04.756Z,5.00
2022-09-03T21:32:22.377Z,4.50
2022-09-03T21:34:39.705Z,4.78
2022-09-03T21:36:56.754Z,4.25
2022-09-03T21:39:14.066Z,4.95
2022-09-03T21:41:30.993Z,4.78
2022-09-03T21:43:48.294Z,4.10
2022-09-03T21:46:05.507Z,3.30
2022-09-03T21:48:32.170Z,4.47
2022-09-03T21:50:49.271Z,3.88
2022-09-03T21:53:06.760Z,4.28
2022-09-03T21:55:23.712Z,4.45
2022-09-03T21:57:40.726Z,4.45
2022-09-03T21:59:57.683Z,5.05
2022-09-03T22:02:14.672Z,4.70
2022-09-03T22:04:31.783Z,5.68
2022-09-03T22:06:48.827Z,4.60
2022-09-03T22:09:05.727Z,5.63
2022-09-03T22:11:22.640Z,5.50
2022-09-03T22:13:39.646Z,5.63
2022-09-03T22:15:56.758Z,5.03
2022-09-03T22:18:15.027Z,6.45
2022-09-03T22:20:32.348Z,5.90
2022-09-03T22:22:49.296Z,5.88
2022-09-03T22:25:06.644Z,5.70
2022-09-03T22:27:23.923Z,5.28
2022-09-03T22:29:41.170Z,5.50
2022-09-03T22:31:58.782Z,4.70
2022-09-03T22:34:15.877Z,5.75
2022-09-03T22:36:32.913Z,6.03
2022-09-03T22:38:50.129Z,6.80
2022-09-03T22:41:07.349Z,7.03
2022-09-03T22:43:24.583Z,6.60
2022-09-03T22:45:41.591Z,7.43
2022-09-03T22:47:58.657Z,7.60
2022-09-03T22:50:15.940Z,7.70
2022-09-03T22:52:33.136Z,8.82
2022-09-03T22:54:50.165Z,7.88
2022-09-03T22:57:07.098Z,8.93
2022-09-03T22:59:24.339Z,8.52
2022-09-03T23:01:41.471Z,8.18
2022-09-03T23:03:58.669Z,9.00
2022-09-03T23:06:15.865Z,9.27
2022-09-03T23:08:33.768Z,8.88
2022-09-03T23:10:51.046Z,9.35
2022-09-03T23:13:08.075Z,9.35
2022-09-03T23:15:25.157Z,9.02
2022-09-03T23:17:42.088Z,8.70
2022-09-03T23:19:59.578Z,8.48
2022-09-03T23:22:16.454Z,9.32
2022-09-03T23:24:33.509Z,8.02
2022-09-03T23:26:51.534Z,9.10
2022-09-03T23:29:08.818Z,8.35
2022-09-03T23:31:25.878Z,10.35
2022-09-03T23:33:43.144Z,9.75
2022-09-03T23:36:00.470Z,9.23
2022-09-03T23:38:17.582Z,8.57
2022-09-03T23:40:34.638Z,7.45
2022-09-03T23:42:52.023Z,7.65
2022-09-03T23:45:10.274Z,8.40
2022-09-03T23:47:33.410Z,8.02
2022-09-03T23:49:50.481Z,8.27
2022-09-03T23:52:07.544Z,7.03
2022-09-03T23:54:25.851Z,7.50
2022-09-03T23:56:42.953Z,8.10
2022-09-03T23:59:00.218Z,8.65
